Time;durP1;ratioP1;P1;durP2;ratioP2;P2;SDS_P1;SDS_P2;PMS_P1;PMS_P2;Temp;Humidity;BMP_temperature;BMP_pressure;BME280_temperature;BME280_humidity;BME280_pressure;Samples;Min_cycle;Max_cycle;Signal;HPM_P1;HPM_P2
2022/03/05 00:00:43;;;;;;;56.20;27.80;;;;;;;;;;5962434;29;20251;-72
2022/03/05 00:03:48;;;;;;;49.22;26.85;;;;;;;;;;5960366;29;20146;-72
2022/03/05 00:06:52;;;;;;;48.78;26.92;;;;;;;;;;5961570;29;20047;-72
2022/03/05 00:09:55;;;;;;;55.28;28.65;;;;;;;;;;5959454;29;20059;-73
2022/03/05 00:12:58;;;;;;;55.88;28.58;;;;;;;;;;5962109;29;20510;-72
2022/03/05 00:16:03;;;;;;;55.03;28.30;;;;;;;;;;5961265;29;20054;-72
2022/03/05 00:19:06;;;;;;;56.78;28.50;;;;;;;;;;5959611;29;20406;-72
2022/03/05 00:22:10;;;;;;;50.10;26.77;;;;;;;;;;5961007;29;20057;-72
2022/03/05 00:25:13;;;;;;;51.38;26.80;;;;;;;;;;5962194;29;20051;-72
2022/03/05 00:28:16;;;;;;;53.42;26.85;;;;;;;;;;5961090;29;20057;-72
2022/03/05 00:31:24;;;;;;;54.92;27.23;;;;;;;;;;5960042;29;20062;-72
2022/03/05 00:34:27;;;;;;;58.05;29.02;;;;;;;;;;5962716;29;20055;-72
2022/03/05 00:37:30;;;;;;;52.80;27.38;;;;;;;;;;5961791;29;20058;-72
2022/03/05 00:40:35;;;;;;;57.47;28.63;;;;;;;;;;5959949;29;20191;-73
2022/03/05 00:43:39;;;;;;;54.63;28.38;;;;;;;;;;5961904;29;20058;-73
2022/03/05 00:46:44;;;;;;;51.33;27.88;;;;;;;;;;5961865;29;20047;-72
2022/03/05 00:49:47;;;;;;;61.70;27.75;;;;;;;;;;5960360;29;20601;-73
2022/03/05 00:52:51;;;;;;;55.20;28.15;;;;;;;;;;5961191;29;20042;-73
2022/03/05 00:55:54;;;;;;;53.40;26.67;;;;;;;;;;5960202;29;20055;-73
2022/03/05 00:58:57;;;;;;;53.10;26.80;;;;;;;;;;5959923;29;20051;-73
2022/03/05 01:02:03;;;;;;;50.78;26.33;;;;;;;;;;5960314;29;20055;-73
2022/03/05 01:05:06;;;;;;;54.15;25.90;;;;;;;;;;5961024;29;20050;-73
2022/03/05 01:08:10;;;;;;;46.15;24.27;;;;;;;;;;5959883;29;20514;-74
2022/03/05 01:11:16;;;;;;;48.40;24.70;;;;;;;;;;5958705;29;20129;-72
2022/03/05 01:14:21;;;;;;;50.10;25.80;;;;;;;;;;5960642;29;20046;-73
2022/03/05 01:17:26;;;;;;;52.30;26.48;;;;;;;;;;5961334;29;20054;-71
2022/03/05 01:20:31;;;;;;;53.28;26.38;;;;;;;;;;5961077;29;20104;-72
2022/03/05 01:23:34;;;;;;;51.20;26.08;;;;;;;;;;5959978;29;20055;-72
2022/03/05 01:26:38;;;;;;;50.85;27.15;;;;;;;;;;5961174;29;20055;-71
2022/03/05 01:29:41;;;;;;;51.67;26.80;;;;;;;;;;5959666;29;20087;-72
2022/03/05 01:32:45;;;;;;;53.83;26.83;;;;;;;;;;5958366;29;20456;-72
2022/03/05 01:35:49;;;;;;;48.70;25.38;;;;;;;;;;5960760;29;20502;-73
2022/03/05 01:38:52;;;;;;;50.35;25.45;;;;;;;;;;5961143;29;20737;-72
2022/03/05 01:41:57;;;;;;;46.53;24.13;;;;;;;;;;5959013;29;20132;-73
2022/03/05 01:45:03;;;;;;;50.50;24.33;;;;;;;;;;5960002;29;20729;-72
2022/03/05 01:48:08;;;;;;;46.17;23.10;;;;;;;;;;5959548;29;20043;-73
2022/03/05 01:51:11;;;;;;;42.95;22.23;;;;;;;;;;5961085;29;20054;-72
2022/03/05 01:54:14;;;;;;;44.53;22.77;;;;;;;;;;5958058;29;20057;-72
2022/03/05 01:57:18;;;;;;;41.30;21.00;;;;;;;;;;5959793;29;20053;-72
2022/03/05 02:00:21;;;;;;;41.13;20.52;;;;;;;;;;5960934;29;20115;-72
2022/03/05 02:03:26;;;;;;;39.33;20.27;;;;;;;;;;5958420;29;20555;-72
2022/03/05 02:06:32;;;;;;;36.03;17.85;;;;;;;;;;5958622;29;20825;-72
2022/03/05 02:09:35;;;;;;;43.22;20.10;;;;;;;;;;5959201;29;20059;-72
2022/03/05 02:12:41;;;;;;;37.13;18.67;;;;;;;;;;5960504;29;20059;-72
2022/03/05 02:15:44;;;;;;;35.90;17.50;;;;;;;;;;5957907;29;20413;-71
2022/03/05 02:18:49;;;;;;;36.78;17.75;;;;;;;;;;5962099;29;20059;-72
2022/03/05 02:21:54;;;;;;;40.10;18.35;;;;;;;;;;5965070;29;20059;-71
2022/03/05 02:24:58;;;;;;;35.13;18.42;;;;;;;;;;5963953;29;20051;-72
2022/03/05 02:28:02;;;;;;;38.60;18.60;;;;;;;;;;5962885;29;20050;-72
2022/03/05 02:31:06;;;;;;;42.28;20.00;;;;;;;;;;5964738;29;20513;-72
2022/03/05 02:34:09;;;;;;;37.25;18.73;;;;;;;;;;5964368;29;20055;-73
2022/03/05 02:37:16;;;;;;;42.17;19.42;;;;;;;;;;5961891;29;20514;-72
2022/03/05 02:40:22;;;;;;;39.00;20.33;;;;;;;;;;5964593;29;20047;-72
2022/03/05 02:43:26;;;;;;;40.28;20.08;;;;;;;;;;5964315;29;20047;-72
2022/03/05 02:46:30;;;;;;;34.28;17.42;;;;;;;;;;5963048;29;20051;-72
2022/03/05 02:49:33;;;;;;;37.38;18.35;;;;;;;;;;5962577;29;20131;-74
2022/03/05 02:52:40;;;;;;;35.92;18.15;;;;;;;;;;5964379;29;20047;-72
2022/03/05 02:55:44;;;;;;;36.22;18.30;;;;;;;;;;5962409;29;20055;-72
2022/03/05 02:58:48;;;;;;;37.50;18.80;;;;;;;;;;5961462;29;20417;-72
2022/03/05 03:01:53;;;;;;;34.15;17.55;;;;;;;;;;5963218;29;20042;-73
2022/03/05 03:04:57;;;;;;;41.97;18.73;;;;;;;;;;5962575;29;20046;-72
2022/03/05 03:08:01;;;;;;;39.40;19.45;;;;;;;;;;5962029;29;20050;-72
2022/03/05 03:11:04;;;;;;;38.17;18.23;;;;;;;;;;5963595;29;20051;-72
2022/03/05 03:14:08;;;;;;;36.50;17.88;;;;;;;;;;5962570;29;20047;-73
2022/03/05 03:17:13;;;;;;;36.60;18.15;;;;;;;;;;5961936;29;20062;-73
2022/03/05 03:20:17;;;;;;;37.30;18.08;;;;;;;;;;5962788;29;20487;-73
2022/03/05 03:23:21;;;;;;;36.05;17.17;;;;;;;;;;5963774;29;20054;-72
2022/03/05 03:26:24;;;;;;;32.15;17.25;;;;;;;;;;5963419;29;20055;-72
2022/03/05 03:29:28;;;;;;;37.25;18.05;;;;;;;;;;5961662;29;20552;-73
2022/03/05 03:32:32;;;;;;;32.78;17.10;;;;;;;;;;5963297;29;20175;-72
2022/03/05 03:35:35;;;;;;;36.15;16.90;;;;;;;;;;5961996;29;20062;-72
2022/03/05 03:38:40;;;;;;;38.15;18.52;;;;;;;;;;5960735;29;20142;-73
2022/03/05 03:41:43;;;;;;;34.80;16.05;;;;;;;;;;5962487;29;20102;-72
2022/03/05 03:44:46;;;;;;;33.10;17.75;;;;;;;;;;5961831;29;20127;-73
2022/03/05 03:47:50;;;;;;;32.50;15.50;;;;;;;;;;5962708;29;20051;-72
2022/03/05 03:50:53;;;;;;;36.90;17.10;;;;;;;;;;5961478;29;20188;-72
2022/03/05 03:54:00;;;;;;;29.60;15.50;;;;;;;;;;5961653;29;20098;-72
2022/03/05 03:57:05;;;;;;;32.60;16.30;;;;;;;;;;5962802;29;20440;-72
2022/03/05 04:00:10;;;;;;;31.45;15.70;;;;;;;;;;5960437;29;20051;-73
2022/03/05 04:03:13;;;;;;;32.75;14.93;;;;;;;;;;5962103;29;20490;-72
2022/03/05 04:06:17;;;;;;;30.60;15.07;;;;;;;;;;5962802;29;20510;-71
2022/03/05 04:09:23;;;;;;;29.08;15.32;;;;;;;;;;5960640;29;20482;-72
2022/03/05 04:12:26;;;;;;;31.35;15.02;;;;;;;;;;5960131;29;20111;-72
2022/03/05 04:15:29;;;;;;;35.33;15.90;;;;;;;;;;5962616;29;20065;-72
2022/03/05 04:18:32;;;;;;;30.60;15.32;;;;;;;;;;5962207;29;20499;-72
2022/03/05 04:21:37;;;;;;;27.93;14.70;;;;;;;;;;5961140;29;20051;-71
2022/03/05 04:24:42;;;;;;;33.50;15.20;;;;;;;;;;5960656;29;20621;-72
2022/03/05 04:27:46;;;;;;;31.23;14.67;;;;;;;;;;5960952;29;20054;-72
2022/03/05 04:30:49;;;;;;;28.67;14.90;;;;;;;;;;5961525;29;20058;-72
2022/03/05 04:33:57;;;;;;;30.60;14.68;;;;;;;;;;5960747;29;20059;-72
2022/03/05 04:37:02;;;;;;;26.60;13.25;;;;;;;;;;5962093;29;20057;-72
2022/03/05 04:40:07;;;;;;;26.55;13.68;;;;;;;;;;5959871;29;20042;-72
2022/03/05 04:43:13;;;;;;;30.48;14.75;;;;;;;;;;5959350;29;20062;-72
2022/03/05 04:46:18;;;;;;;29.23;13.60;;;;;;;;;;5961414;29;20396;-72
2022/03/05 04:49:21;;;;;;;27.75;14.30;;;;;;;;;;5961656;29;20211;-72
2022/03/05 04:52:27;;;;;;;30.87;14.30;;;;;;;;;;5959613;29;20129;-72
2022/03/05 04:55:31;;;;;;;24.77;13.13;;;;;;;;;;5959248;29;20384;-72
2022/03/05 04:58:34;;;;;;;27.00;13.20;;;;;;;;;;5960288;29;20058;-72
2022/03/05 05:01:38;;;;;;;28.20;12.98;;;;;;;;;;5961173;29;20103;-72
2022/03/05 05:04:41;;;;;;;28.95;12.70;;;;;;;;;;5960000;29;20113;-73
2022/03/05 05:07:47;;;;;;;25.77;13.13;;;;;;;;;;5960043;29;20050;-73
2022/03/05 05:10:52;;;;;;;24.27;12.85;;;;;;;;;;5959963;29;20055;-72
2022/03/05 05:13:55;;;;;;;27.73;13.90;;;;;;;;;;5960675;29;20050;-73
2022/03/05 05:17:01;;;;;;;26.63;13.35;;;;;;;;;;5960679;29;20885;-73
2022/03/05 05:20:04;;;;;;;26.38;12.77;;;;;;;;;;5961232;29;20055;-72
2022/03/05 05:23:07;;;;;;;26.92;13.52;;;;;;;;;;5960677;29;20041;-72
2022/03/05 05:26:12;;;;;;;24.45;13.07;;;;;;;;;;5958346;29;20062;-73
2022/03/05 05:29:15;;;;;;;26.52;12.43;;;;;;;;;;5959670;29;20577;-72
2022/03/05 05:32:42;;;;;;;26.00;13.18;;;;;;;;;;5959748;29;20456;-72
2022/03/05 05:35:47;;;;;;;27.33;12.75;;;;;;;;;;5959345;29;20050;-73
2022/03/05 05:38:53;;;;;;;27.70;13.27;;;;;;;;;;5958330;29;20498;-73
2022/03/05 05:41:58;;;;;;;28.13;13.82;;;;;;;;;;5960829;29;20054;-73
2022/03/05 05:45:01;;;;;;;26.45;12.05;;;;;;;;;;5959218;29;20530;-73
2022/03/05 05:48:07;;;;;;;23.88;12.18;;;;;;;;;;5958156;29;20054;-73
2022/03/05 05:51:10;;;;;;;23.17;11.35;;;;;;;;;;5960716;29;20050;-73
2022/03/05 05:54:13;;;;;;;23.55;11.77;;;;;;;;;;5964133;29;20180;-73
2022/03/05 05:57:20;;;;;;;25.67;12.88;;;;;;;;;;5964553;29;20111;-73
2022/03/05 06:00:22;;;;;;;25.48;12.45;;;;;;;;;;5964375;29;20103;-73
2022/03/05 06:03:26;;;;;;;22.73;11.38;;;;;;;;;;5965226;29;20100;-73
2022/03/05 06:06:29;;;;;;;24.02;12.32;;;;;;;;;;5964665;29;20055;-72
2022/03/05 06:09:35;;;;;;;26.08;11.70;;;;;;;;;;5961908;29;20069;-72
2022/03/05 06:12:40;;;;;;;21.00;11.45;;;;;;;;;;5964894;29;20055;-72
2022/03/05 06:15:43;;;;;;;26.77;12.30;;;;;;;;;;5964858;29;20043;-72
2022/03/05 06:18:46;;;;;;;21.60;11.15;;;;;;;;;;5962615;29;20554;-72
2022/03/05 06:21:50;;;;;;;23.92;12.10;;;;;;;;;;5963007;29;20054;-74
2022/03/05 06:24:55;;;;;;;21.75;11.13;;;;;;;;;;5964922;29;20491;-73
2022/03/05 06:28:04;;;;;;;22.15;11.50;;;;;;;;;;5964678;29;20043;-73
2022/03/05 06:31:07;;;;;;;25.08;10.93;;;;;;;;;;5963243;29;20501;-73
2022/03/05 06:34:10;;;;;;;20.55;11.60;;;;;;;;;;5964809;29;20051;-73
2022/03/05 06:37:16;;;;;;;26.85;11.90;;;;;;;;;;5963337;29;20053;-74
2022/03/05 06:40:21;;;;;;;24.83;10.85;;;;;;;;;;5962274;29;20059;-74
2022/03/05 06:43:28;;;;;;;22.90;11.10;;;;;;;;;;5962692;29;20165;-74
2022/03/05 06:46:31;;;;;;;22.85;11.77;;;;;;;;;;5963063;29;20046;-74
2022/03/05 06:49:36;;;;;;;23.23;12.15;;;;;;;;;;5962341;29;20050;-73
2022/03/05 06:52:40;;;;;;;23.55;11.75;;;;;;;;;;5961464;29;20062;-74
2022/03/05 06:55:43;;;;;;;21.13;11.02;;;;;;;;;;5964166;29;20468;-74
2022/03/05 06:58:50;;;;;;;21.27;11.20;;;;;;;;;;5962761;29;20050;-74
2022/03/05 07:01:56;;;;;;;23.63;11.10;;;;;;;;;;5961858;29;20131;-74
2022/03/05 07:04:59;;;;;;;23.55;11.00;;;;;;;;;;5961392;29;20051;-74
2022/03/05 07:08:07;;;;;;;23.55;10.45;;;;;;;;;;5964224;29;20058;-73
2022/03/05 07:11:11;;;;;;;19.52;9.75;;;;;;;;;;5961582;29;20059;-73
2022/03/05 07:14:15;;;;;;;19.42;9.80;;;;;;;;;;5962479;29;20062;-74
2022/03/05 07:17:18;;;;;;;22.45;9.88;;;;;;;;;;5962276;29;20066;-72
2022/03/05 07:20:22;;;;;;;19.33;9.27;;;;;;;;;;5962078;29;20191;-73
2022/03/05 07:23:27;;;;;;;19.35;9.45;;;;;;;;;;5962707;29;20051;-72
2022/03/05 07:26:32;;;;;;;17.50;8.98;;;;;;;;;;5963116;29;20133;-71
2022/03/05 07:29:37;;;;;;;20.67;9.23;;;;;;;;;;5962251;29;20104;-72
2022/03/05 07:32:40;;;;;;;18.17;9.35;;;;;;;;;;5961094;29;20054;-72
2022/03/05 07:35:43;;;;;;;16.40;8.75;;;;;;;;;;5960730;29;20856;-72
2022/03/05 07:38:46;;;;;;;18.00;8.48;;;;;;;;;;5963312;29;20051;-74
2022/03/05 07:41:49;;;;;;;21.17;11.23;;;;;;;;;;5961282;29;20058;-72
2022/03/05 07:44:55;;;;;;;28.25;14.27;;;;;;;;;;5960440;29;20430;-72
2022/03/05 07:47:59;;;;;;;23.35;11.60;;;;;;;;;;5962848;29;20039;-72
2022/03/05 07:51:02;;;;;;;21.13;10.88;;;;;;;;;;5962749;29;20482;-72
2022/03/05 07:54:05;;;;;;;17.00;8.63;;;;;;;;;;5961865;29;20050;-74
2022/03/05 07:57:11;;;;;;;16.38;8.32;;;;;;;;;;5960634;29;20051;-72
2022/03/05 08:00:16;;;;;;;20.65;9.05;;;;;;;;;;5962747;29;20061;-73
2022/03/05 08:03:24;;;;;;;17.58;8.82;;;;;;;;;;5960702;29;20434;-72
2022/03/05 08:06:28;;;;;;;16.70;8.63;;;;;;;;;;5960296;29;20059;-72
2022/03/05 08:09:33;;;;;;;16.67;9.27;;;;;;;;;;5960947;29;20070;-72
2022/03/05 08:12:36;;;;;;;17.88;9.13;;;;;;;;;;5962559;29;20058;-72
2022/03/05 08:15:40;;;;;;;16.00;8.15;;;;;;;;;;5959096;29;20092;-72
2022/03/05 08:18:47;;;;;;;15.63;8.38;;;;;;;;;;5960213;29;20098;-72
2022/03/05 08:21:50;;;;;;;17.67;9.57;;;;;;;;;;5962133;29;20119;-72
2022/03/05 08:24:54;;;;;;;18.30;9.05;;;;;;;;;;5960286;29;20499;-73
2022/03/05 08:27:57;;;;;;;18.70;8.50;;;;;;;;;;5959246;29;20054;-73
2022/03/05 08:31:02;;;;;;;14.77;8.23;;;;;;;;;;5960613;29;20410;-73
2022/03/05 08:34:05;;;;;;;16.73;9.05;;;;;;;;;;5961703;29;20447;-74
2022/03/05 08:37:10;;;;;;;18.83;8.63;;;;;;;;;;5959509;29;20050;-74
2022/03/05 08:40:14;;;;;;;19.15;9.30;;;;;;;;;;5961355;29;20425;-74
2022/03/05 08:43:18;;;;;;;17.67;8.60;;;;;;;;;;5960262;29;20050;-74
2022/03/05 08:46:22;;;;;;;19.42;9.82;;;;;;;;;;5961114;29;20467;-74
2022/03/05 08:49:26;;;;;;;20.55;9.40;;;;;;;;;;5958916;29;20112;-74
2022/03/05 08:52:35;;;;;;;18.77;9.50;;;;;;;;;;5961396;29;20058;-74
2022/03/05 08:55:38;;;;;;;17.45;9.63;;;;;;;;;;5959764;29;20055;-74
2022/03/05 08:58:41;;;;;;;17.15;9.27;;;;;;;;;;5960296;29;20679;-72
2022/03/05 09:01:46;;;;;;;16.50;9.30;;;;;;;;;;5959574;29;20066;-73
2022/03/05 09:04:50;;;;;;;15.60;8.02;;;;;;;;;;5961671;29;20053;-73
2022/03/05 09:07:55;;;;;;;17.27;8.43;;;;;;;;;;5960509;29;20475;-73
2022/03/05 09:10:59;;;;;;;17.27;8.90;;;;;;;;;;5959646;29;20059;-73
2022/03/05 09:14:02;;;;;;;19.52;9.13;;;;;;;;;;5961137;29;20046;-73
2022/03/05 09:17:09;;;;;;;17.63;8.43;;;;;;;;;;5959373;29;20129;-72
2022/03/05 09:20:12;;;;;;;17.00;8.75;;;;;;;;;;5959826;29;20054;-73
2022/03/05 09:23:16;;;;;;;15.05;8.23;;;;;;;;;;5959451;29;20160;-72
2022/03/05 09:26:19;;;;;;;16.58;8.50;;;;;;;;;;5960919;29;20433;-72
2022/03/05 09:29:23;;;;;;;18.17;8.63;;;;;;;;;;5960097;29;20047;-73
2022/03/05 09:32:28;;;;;;;16.75;8.98;;;;;;;;;;5958500;29;20050;-74
2022/03/05 09:35:31;;;;;;;16.30;7.72;;;;;;;;;;5960742;29;20198;-73
2022/03/05 09:38:34;;;;;;;23.63;9.45;;;;;;;;;;5960286;29;20066;-72
2022/03/05 09:41:38;;;;;;;16.08;9.48;;;;;;;;;;5959404;29;20188;-74
2022/03/05 09:44:41;;;;;;;20.40;9.82;;;;;;;;;;5959729;29;20050;-74
2022/03/05 09:47:46;;;;;;;17.67;9.30;;;;;;;;;;5960842;29;20061;-74
2022/03/05 09:50:49;;;;;;;17.00;9.77;;;;;;;;;;5958474;29;20510;-74
2022/03/05 09:53:53;;;;;;;18.08;8.25;;;;;;;;;;5960004;29;20176;-74
2022/03/05 09:56:56;;;;;;;19.20;9.10;;;;;;;;;;5959493;29;20066;-72
2022/03/05 09:59:59;;;;;;;19.00;8.85;;;;;;;;;;5960221;29;20139;-73
2022/03/05 10:03:07;;;;;;;17.27;9.05;;;;;;;;;;5959069;29;20380;-72
2022/03/05 10:06:15;;;;;;;17.92;9.35;;;;;;;;;;5960596;29;20184;-73
2022/03/05 10:09:21;;;;;;;16.60;9.60;;;;;;;;;;5960003;29;20065;-74
2022/03/05 10:12:26;;;;;;;15.52;8.55;;;;;;;;;;5957899;29;20054;-74
2022/03/05 10:15:29;;;;;;;21.00;9.70;;;;;;;;;;5960775;29;20058;-72
2022/03/05 10:18:36;;;;;;;16.67;8.77;;;;;;;;;;5958927;29;20387;-74
2022/03/05 10:21:55;;;;;;;14.40;8.57;;;;;;;;;;5958553;29;20057;-74
2022/03/05 10:25:00;;;;;;;15.93;8.02;;;;;;;;;;5959033;29;20483;-72
2022/03/05 10:28:09;;;;;;;17.02;8.50;;;;;;;;;;5958891;29;20051;-74
2022/03/05 10:31:13;;;;;;;16.25;8.48;;;;;;;;;;5960002;29;20180;-74
2022/03/05 10:34:20;;;;;;;14.70;7.63;;;;;;;;;;5958057;29;20064;-73
2022/03/05 10:37:25;;;;;;;15.02;8.63;;;;;;;;;;5959234;29;20057;-73
2022/03/05 10:40:29;;;;;;;16.63;8.60;;;;;;;;;;5962492;29;20555;-74
2022/03/05 10:43:35;;;;;;;16.30;8.40;;;;;;;;;;5962627;29;20149;-73
2022/03/05 10:46:39;;;;;;;14.60;8.07;;;;;;;;;;5961764;29;20055;-73
2022/03/05 10:49:43;;;;;;;15.63;8.45;;;;;;;;;;5962940;29;20055;-73
2022/03/05 10:52:47;;;;;;;15.38;8.77;;;;;;;;;;5962723;29;20053;-73
2022/03/05 10:55:49;;;;;;;14.75;8.55;;;;;;;;;;5963219;29;20176;-74
2022/03/05 10:58:57;;;;;;;13.50;8.35;;;;;;;;;;5962096;29;20047;-74
2022/03/05 11:02:00;;;;;;;11.90;7.50;;;;;;;;;;5964020;29;20051;-73
2022/03/05 11:05:05;;;;;;;13.30;7.05;;;;;;;;;;5963401;29;20403;-74
2022/03/05 11:08:08;;;;;;;15.88;8.50;;;;;;;;;;5961487;29;20051;-73
2022/03/05 11:11:12;;;;;;;16.00;8.02;;;;;;;;;;5962458;29;20059;-73
2022/03/05 11:14:15;;;;;;;21.48;11.38;;;;;;;;;;5963573;29;20049;-74
2022/03/05 11:17:19;;;;;;;18.15;9.57;;;;;;;;;;5961211;29;20055;-74
2022/03/05 11:20:23;;;;;;;16.02;8.95;;;;;;;;;;5961835;29;20062;-73
2022/03/05 11:23:27;;;;;;;16.88;8.45;;;;;;;;;;5963532;29;20058;-73
2022/03/05 11:26:32;;;;;;;15.55;8.60;;;;;;;;;;5961504;29;20388;-74
2022/03/05 11:29:57;;;;;;;18.67;8.98;;;;;;;;;;5962602;29;20055;-74
2022/03/05 11:33:02;;;;;;;16.77;9.15;;;;;;;;;;5963555;29;20495;-73
2022/03/05 11:36:08;;;;;;;15.52;8.73;;;;;;;;;;5963880;29;20115;-73
2022/03/05 11:39:18;;;;;;;15.33;9.50;;;;;;;;;;5961206;29;20051;-73
2022/03/05 11:42:28;;;;;;;16.60;9.07;;;;;;;;;;5960979;29;20313;-73
2022/03/05 11:45:32;;;;;;;16.10;9.35;;;;;;;;;;5963119;29;20055;-73
2022/03/05 11:48:36;;;;;;;14.13;8.68;;;;;;;;;;5961165;29;20456;-73
2022/03/05 11:51:52;;;;;;;18.55;10.00;;;;;;;;;;5961430;29;20180;-74
2022/03/05 11:55:11;;;;;;;18.27;9.48;;;;;;;;;;5962320;29;20058;-74
2022/03/05 11:58:34;;;;;;;20.63;10.13;;;;;;;;;;5963043;29;20055;-73
2022/03/05 12:01:51;;;;;;;16.90;8.40;;;;;;;;;;5959618;29;20094;-73
2022/03/05 12:04:55;;;;;;;14.38;8.32;;;;;;;;;;5961621;29;20051;-72
2022/03/05 12:07:59;;;;;;;16.75;7.97;;;;;;;;;;5962037;29;20510;-74
2022/03/05 12:11:10;;;;;;;15.57;8.27;;;;;;;;;;5960970;29;20081;-74
2022/03/05 12:14:13;;;;;;;12.88;7.55;;;;;;;;;;5961791;29;20058;-74
2022/03/05 12:17:20;;;;;;;12.95;7.05;;;;;;;;;;5961208;29;20414;-71
2022/03/05 12:20:25;;;;;;;14.60;7.18;;;;;;;;;;5962305;29;20055;-75
2022/03/05 12:23:31;;;;;;;12.68;7.45;;;;;;;;;;5962193;29;20528;-73
2022/03/05 12:26:37;;;;;;;13.27;7.45;;;;;;;;;;5961209;29;20546;-73
2022/03/05 12:29:47;;;;;;;14.02;7.07;;;;;;;;;;5960173;29;20061;-74
2022/03/05 12:32:52;;;;;;;14.35;7.47;;;;;;;;;;5962045;29;20047;-73
2022/03/05 12:35:56;;;;;;;13.63;7.75;;;;;;;;;;5961510;29;20055;-73
2022/03/05 12:39:01;;;;;;;18.38;8.10;;;;;;;;;;5960469;29;20069;-73
2022/03/05 12:42:07;;;;;;;17.25;8.40;;;;;;;;;;5962325;29;20079;-73
2022/03/05 12:45:15;;;;;;;14.13;7.07;;;;;;;;;;5961465;29;20084;-71
2022/03/05 12:48:19;;;;;;;12.38;7.40;;;;;;;;;;5944687;29;20544;-73
2022/03/05 12:51:23;;;;;;;13.07;7.15;;;;;;;;;;5960769;29;20406;-75
2022/03/05 12:54:30;;;;;;;14.63;7.70;;;;;;;;;;5961346;29;20058;-73
2022/03/05 12:57:35;;;;;;;11.98;6.55;;;;;;;;;;5959644;29;20051;-72
2022/03/05 13:00:39;;;;;;;13.35;6.57;;;;;;;;;;5960212;29;20047;-72
2022/03/05 13:03:45;;;;;;;13.00;6.40;;;;;;;;;;5959697;29;20057;-74
2022/03/05 13:06:48;;;;;;;10.95;6.70;;;;;;;;;;5960874;29;20043;-73
2022/03/05 13:13:28;;;;;;;12.68;6.65;;;;;;;;;;6348307;27;1276859;-73
2022/03/05 13:16:34;;;;;;;14.35;6.50;;;;;;;;;;6366349;28;20043;-73
2022/03/05 13:19:37;;;;;;;11.32;6.50;;;;;;;;;;6347289;28;20047;-73
2022/03/05 13:22:41;;;;;;;12.77;6.15;;;;;;;;;;6364704;28;20054;-75
2022/03/05 13:25:49;;;;;;;11.60;7.00;;;;;;;;;;6347700;28;20047;-74
2022/03/05 13:28:54;;;;;;;12.25;6.57;;;;;;;;;;6347611;28;20047;-72
2022/03/05 13:32:00;;;;;;;12.85;6.97;;;;;;;;;;6363976;28;20039;-73
2022/03/05 13:35:04;;;;;;;12.57;6.80;;;;;;;;;;6327222;28;20044;-74
2022/03/05 13:38:07;;;;;;;13.27;6.55;;;;;;;;;;6340249;28;20490;-74
2022/03/05 13:41:11;;;;;;;9.98;5.97;;;;;;;;;;6339464;28;20044;-73
2022/03/05 13:44:21;;;;;;;14.27;6.50;;;;;;;;;;6320830;28;20439;-73
2022/03/05 13:47:26;;;;;;;10.32;6.20;;;;;;;;;;6321789;28;20050;-73
2022/03/05 13:50:29;;;;;;;11.93;6.82;;;;;;;;;;6321746;28;20476;-72
2022/03/05 13:53:41;;;;;;;15.13;6.97;;;;;;;;;;6338033;28;20052;-75
2022/03/05 13:56:48;;;;;;;14.50;7.07;;;;;;;;;;6321323;28;20331;-73
2022/03/05 13:59:53;;;;;;;14.95;6.80;;;;;;;;;;6339698;28;20054;-73
2022/03/05 14:02:57;;;;;;;10.82;6.28;;;;;;;;;;6320151;28;20066;-71
2022/03/05 14:06:10;;;;;;;13.15;6.55;;;;;;;;;;6317965;28;20040;-71
2022/03/05 14:09:29;;;;;;;13.27;6.63;;;;;;;;;;6320557;28;20047;-73
2022/03/05 14:12:33;;;;;;;13.05;6.95;;;;;;;;;;6339008;28;20052;-74
2022/03/05 14:15:38;;;;;;;;;;;;;;;;;;6318950;28;20123;-73
2022/03/05 14:18:46;;;;;;;12.40;6.70;;;;;;;;;;6320224;28;19925;-74
2022/03/05 14:22:03;;;;;;;10.55;6.15;;;;;;;;;;6318787;28;20043;-73
2022/03/05 14:25:16;;;;;;;12.15;6.43;;;;;;;;;;6301508;28;20048;-72
2022/03/05 14:28:23;;;;;;;14.40;6.55;;;;;;;;;;6318744;28;20048;-73
2022/03/05 14:31:26;;;;;;;15.32;6.97;;;;;;;;;;6301470;28;20093;-74
2022/03/05 14:34:31;;;;;;;12.25;6.43;;;;;;;;;;6319229;28;20426;-74
2022/03/05 14:37:34;;;;;;;14.97;6.70;;;;;;;;;;6319814;28;20043;-73
2022/03/05 14:40:39;;;;;;;13.70;6.95;;;;;;;;;;6300373;28;20055;-74
2022/03/05 14:43:42;;;;;;;11.93;6.47;;;;;;;;;;6320403;28;20402;-73
2022/03/05 14:46:51;;;;;;;12.13;6.35;;;;;;;;;;6302489;28;20044;-73
2022/03/05 14:49:58;;;;;;;11.63;6.13;;;;;;;;;;6302296;28;20067;-73
2022/03/05 14:53:02;;;;;;;13.55;7.15;;;;;;;;;;6321689;28;20070;-75
2022/03/05 14:56:07;;;;;;;13.95;7.18;;;;;;;;;;6303698;28;20047;-73
2022/03/05 14:59:12;;;;;;;12.45;6.28;;;;;;;;;;6303405;28;20124;-74
2022/03/05 15:02:16;;;;;;;12.55;6.75;;;;;;;;;;6285382;28;20047;-73
2022/03/05 15:05:22;;;;;;;;;;;;;;;;;;6303824;28;20059;-73
2022/03/05 15:08:26;;;;;;;13.23;6.85;;;;;;;;;;6303287;28;19927;-74
2022/03/05 15:11:30;;;;;;;12.85;6.57;;;;;;;;;;6301272;28;21198;-73
2022/03/05 15:14:36;;;;;;;12.50;6.03;;;;;;;;;;6321190;28;20052;-73
2022/03/05 15:17:39;;;;;;;15.35;6.93;;;;;;;;;;6303089;28;20048;-73
2022/03/05 15:20:45;;;;;;;13.35;6.93;;;;;;;;;;6302403;28;20479;-73
2022/03/05 15:23:50;;;;;;;15.85;7.30;;;;;;;;;;6319943;28;20087;-72
2022/03/05 15:26:53;;;;;;;13.27;7.13;;;;;;;;;;6302956;28;20425;-74
2022/03/05 15:29:56;;;;;;;14.43;6.97;;;;;;;;;;6302787;28;20100;-74
2022/03/05 15:33:03;;;;;;;13.35;6.75;;;;;;;;;;6301129;28;20101;-74
2022/03/05 15:36:06;;;;;;;10.80;6.68;;;;;;;;;;6301321;28;20533;-73
2022/03/05 15:39:11;;;;;;;13.68;6.47;;;;;;;;;;6302518;28;20414;-74
2022/03/05 15:42:15;;;;;;;12.35;6.60;;;;;;;;;;6301285;28;20069;-73
2022/03/05 15:45:18;;;;;;;14.35;6.75;;;;;;;;;;6319392;28;20052;-73
2022/03/05 15:48:21;;;;;;;11.45;6.32;;;;;;;;;;6320031;28;20121;-73
2022/03/05 15:51:28;;;;;;;12.02;6.55;;;;;;;;;;6319974;28;20043;-73
2022/03/05 15:54:32;;;;;;;17.73;6.10;;;;;;;;;;6318186;28;20048;-73
2022/03/05 15:57:36;;;;;;;13.07;6.80;;;;;;;;;;6302072;28;20047;-73
2022/03/05 16:00:41;;;;;;;;;;;;;;;;;;6302348;28;20052;-74
2022/03/05 16:03:45;;;;;;;13.27;6.25;;;;;;;;;;6300602;28;19920;-72
2022/03/05 16:06:51;;;;;;;12.68;6.13;;;;;;;;;;6319137;28;20048;-72
2022/03/05 16:09:57;;;;;;;14.20;7.47;;;;;;;;;;6319726;28;20379;-73
2022/03/05 16:13:00;;;;;;;18.45;8.73;;;;;;;;;;6301617;28;20048;-72
2022/03/05 16:16:03;;;;;;;15.25;8.10;;;;;;;;;;6299825;28;20513;-73
2022/03/05 16:19:07;;;;;;;14.15;7.47;;;;;;;;;;6319634;28;20055;-73
2022/03/05 16:22:12;;;;;;;;;;;;;;;;;;6301882;28;20109;-74
2022/03/05 16:25:16;;;;;;;14.57;6.65;;;;;;;;;;6318028;28;20168;-73
2022/03/05 16:28:20;;;;;;;11.85;6.30;;;;;;;;;;6300517;28;20048;-73
2022/03/05 16:31:25;;;;;;;12.50;6.28;;;;;;;;;;6301053;28;20118;-72
2022/03/05 16:34:29;;;;;;;17.33;8.50;;;;;;;;;;6318934;28;20101;-73
2022/03/05 16:37:32;;;;;;;21.05;9.20;;;;;;;;;;6317815;28;20058;-73
2022/03/05 16:40:56;;;;;;;21.83;8.23;;;;;;;;;;6319249;28;20051;-73
2022/03/05 16:43:59;;;;;;;16.57;7.57;;;;;;;;;;6301231;28;20040;-74
2022/03/05 16:47:07;;;;;;;11.05;5.07;;;;;;;;;;6317985;28;20300;-73
2022/03/05 16:50:10;;;;;;;;;;;;;;;;;;6318760;28;20044;-73
2022/03/05 16:53:14;;;;;;;7.05;3.65;;;;;;;;;;6301259;28;19962;-72
2022/03/05 16:56:18;;;;;;;7.82;4.32;;;;;;;;;;6300796;28;20531;-73
2022/03/05 16:59:22;;;;;;;7.82;3.65;;;;;;;;;;6299283;28;20540;-73
2022/03/05 17:02:25;;;;;;;9.40;4.20;;;;;;;;;;6318943;28;20051;-73
2022/03/05 17:05:32;;;;;;;7.63;4.10;;;;;;;;;;6318833;28;20494;-73
2022/03/05 17:08:35;;;;;;;8.32;4.07;;;;;;;;;;6317472;28;20048;-74
2022/03/05 17:11:40;;;;;;;11.82;4.45;;;;;;;;;;6299992;28;20056;-74
2022/03/05 17:14:44;;;;;;;7.25;4.15;;;;;;;;;;6318923;28;20052;-73
2022/03/05 17:17:47;;;;;;;8.63;4.22;;;;;;;;;;6300401;28;20048;-74
2022/03/05 17:20:53;;;;;;;9.55;4.90;;;;;;;;;;6317391;28;20071;-75
2022/03/05 17:23:56;;;;;;;9.45;4.57;;;;;;;;;;6300390;28;20040;-74
2022/03/05 17:27:03;;;;;;;9.05;4.85;;;;;;;;;;6319065;28;20110;-74
2022/03/05 17:30:09;;;;;;;12.15;5.13;;;;;;;;;;6317109;28;20048;-74
2022/03/05 17:33:12;;;;;;;10.95;5.18;;;;;;;;;;6299798;28;20505;-74
2022/03/05 17:36:16;;;;;;;11.52;5.03;;;;;;;;;;6318447;28;20137;-74
2022/03/05 17:39:21;;;;;;;10.53;5.23;;;;;;;;;;6300108;28;20055;-74
2022/03/05 17:42:26;;;;;;;9.90;5.60;;;;;;;;;;6316978;28;20293;-74
2022/03/05 17:45:30;;;;;;;14.25;5.63;;;;;;;;;;6318494;28;20044;-74
2022/03/05 17:48:36;;;;;;;13.98;5.90;;;;;;;;;;6300274;28;20052;-74
2022/03/05 17:51:39;;;;;;;10.90;5.43;;;;;;;;;;6316839;28;20048;-74
2022/03/05 17:54:44;;;;;;;12.15;5.30;;;;;;;;;;6300057;28;20048;-73
2022/03/05 17:57:54;;;;;;;12.57;5.78;;;;;;;;;;6319308;28;20123;-74
2022/03/05 18:00:58;;;;;;;11.77;5.82;;;;;;;;;;6304506;28;20051;-74
2022/03/05 18:04:01;;;;;;;11.25;6.28;;;;;;;;;;6303522;28;20044;-74
2022/03/05 18:07:05;;;;;;;9.40;5.15;;;;;;;;;;6322919;28;20044;-74
2022/03/05 18:10:10;;;;;;;12.73;5.70;;;;;;;;;;6305646;28;20463;-74